sensor_id;sensor_type;location;lat;lon;timestamp;pressure;altitude;pressure_sealevel;temperature;humidity
13695;BME280;6919;52.344;14.518;2022-12-20T00:01:53;101043.84;;;4.23;100.00
13695;BME280;6919;52.344;14.518;2022-12-20T00:04:22;101043.44;;;4.29;100.00
13695;BME280;6919;52.344;14.518;2022-12-20T00:06:50;101042.25;;;4.20;100.00
13695;BME280;6919;52.344;14.518;2022-12-20T00:09:18;101045.88;;;4.19;100.00
13695;BME280;6919;52.344;14.518;2022-12-20T00:11:46;101053.97;;;4.30;100.00
13695;BME280;6919;52.344;14.518;2022-12-20T00:14:17;101056.72;;;4.29;100.00
13695;BME280;6919;52.344;14.518;2022-12-20T00:16:45;101047.69;;;4.31;100.00
13695;BME280;6919;52.344;14.518;2022-12-20T00:19:13;101035.03;;;4.35;100.00
13695;BME280;6919;52.344;14.518;2022-12-20T00:21:42;101036.31;;;4.29;100.00
13695;BME280;6919;52.344;14.518;2022-12-20T00:24:10;101035.28;;;4.32;100.00
13695;BME280;6919;52.344;14.518;2022-12-20T00:26:38;101036.56;;;4.39;100.00
13695;BME280;6919;52.344;14.518;2022-12-20T00:29:07;101024.88;;;4.41;100.00
13695;BME280;6919;52.344;14.518;2022-12-20T00:31:37;101019.00;;;4.36;100.00
13695;BME280;6919;52.344;14.518;2022-12-20T00:34:05;101023.38;;;4.25;100.00
13695;BME280;6919;52.344;14.518;2022-12-20T00:36:34;101026.16;;;4.36;100.00
13695;BME280;6919;52.344;14.518;2022-12-20T00:39:02;101017.75;;;4.42;100.00
13695;BME280;6919;52.344;14.518;2022-12-20T00:41:32;101022.41;;;4.38;100.00
13695;BME280;6919;52.344;14.518;2022-12-20T00:44:02;101030.50;;;4.49;100.00
13695;BME280;6919;52.344;14.518;2022-12-20T00:46:31;101018.69;;;4.41;100.00
13695;BME280;6919;52.344;14.518;2022-12-20T00:49:02;101034.31;;;4.45;100.00
13695;BME280;6919;52.344;14.518;2022-12-20T00:51:30;101028.25;;;4.43;100.00
13695;BME280;6919;52.344;14.518;2022-12-20T00:53:59;101025.94;;;4.51;100.00
13695;BME280;6919;52.344;14.518;2022-12-20T00:56:28;101024.22;;;4.50;100.00
13695;BME280;6919;52.344;14.518;2022-12-20T00:58:57;101023.81;;;4.56;100.00
13695;BME280;6919;52.344;14.518;2022-12-20T01:01:29;101022.94;;;4.68;100.00
13695;BME280;6919;52.344;14.518;2022-12-20T01:03:58;101016.25;;;4.63;100.00
13695;BME280;6919;52.344;14.518;2022-12-20T01:06:29;101023.91;;;4.55;100.00
13695;BME280;6919;52.344;14.518;2022-12-20T01:08:58;101022.94;;;4.68;100.00
13695;BME280;6919;52.344;14.518;2022-12-20T01:11:29;101015.09;;;4.54;100.00
13695;BME280;6919;52.344;14.518;2022-12-20T01:14:01;101006.91;;;4.57;100.00
13695;BME280;6919;52.344;14.518;2022-12-20T01:16:33;101012.56;;;4.65;100.00
13695;BME280;6919;52.344;14.518;2022-12-20T01:19:02;101019.97;;;4.73;100.00
13695;BME280;6919;52.344;14.518;2022-12-20T01:21:33;101013.69;;;4.74;100.00
13695;BME280;6919;52.344;14.518;2022-12-20T01:24:01;101022.53;;;4.62;100.00
13695;BME280;6919;52.344;14.518;2022-12-20T01:26:30;101026.97;;;4.61;100.00
13695;BME280;6919;52.344;14.518;2022-12-20T01:28:59;101029.22;;;4.67;100.00
13695;BME280;6919;52.344;14.518;2022-12-20T01:31:28;101032.63;;;4.69;100.00
13695;BME280;6919;52.344;14.518;2022-12-20T01:33:58;101035.59;;;4.77;100.00
13695;BME280;6919;52.344;14.518;2022-12-20T01:36:30;101031.13;;;4.90;100.00
13695;BME280;6919;52.344;14.518;2022-12-20T01:39:03;101019.16;;;4.72;100.00
13695;BME280;6919;52.344;14.518;2022-12-20T01:41:33;101011.69;;;4.77;100.00
13695;BME280;6919;52.344;14.518;2022-12-20T01:44:05;101005.53;;;4.77;100.00
13695;BME280;6919;52.344;14.518;2022-12-20T01:46:34;101011.59;;;4.66;100.00
13695;BME280;6919;52.344;14.518;2022-12-20T01:49:09;101000.13;;;4.66;100.00
13695;BME280;6919;52.344;14.518;2022-12-20T01:51:42;101001.38;;;4.85;100.00
13695;BME280;6919;52.344;14.518;2022-12-20T01:54:16;101001.50;;;4.71;100.00
13695;BME280;6919;52.344;14.518;2022-12-20T01:56:50;100999.16;;;4.79;100.00
13695;BME280;6919;52.344;14.518;2022-12-20T01:59:20;100993.50;;;4.84;100.00
13695;BME280;6919;52.344;14.518;2022-12-20T02:01:48;100995.94;;;4.87;100.00
13695;BME280;6919;52.344;14.518;2022-12-20T02:04:16;100996.59;;;4.90;100.00
13695;BME280;6919;52.344;14.518;2022-12-20T02:06:45;100996.81;;;4.87;100.00
13695;BME280;6919;52.344;14.518;2022-12-20T02:09:15;100982.97;;;4.82;100.00
13695;BME280;6919;52.344;14.518;2022-12-20T02:12:05;100985.75;;;4.81;100.00
13695;BME280;6919;52.344;14.518;2022-12-20T02:14:53;100980.88;;;4.87;100.00
13695;BME280;6919;52.344;14.518;2022-12-20T02:17:40;100978.22;;;4.75;100.00
13695;BME280;6919;52.344;14.518;2022-12-20T02:20:46;100971.84;;;4.77;100.00
13695;BME280;6919;52.344;14.518;2022-12-20T02:23:48;100982.38;;;4.79;100.00
13695;BME280;6919;52.344;14.518;2022-12-20T02:27:14;100987.47;;;4.82;100.00
13695;BME280;6919;52.344;14.518;2022-12-20T02:30:10;100977.25;;;4.76;100.00
13695;BME280;6919;52.344;14.518;2022-12-20T02:32:48;100973.25;;;4.70;100.00
13695;BME280;6919;52.344;14.518;2022-12-20T02:35:23;100976.16;;;4.91;100.00
13695;BME280;6919;52.344;14.518;2022-12-20T02:37:54;100983.84;;;4.83;100.00
13695;BME280;6919;52.344;14.518;2022-12-20T02:40:27;100974.88;;;4.96;100.00
13695;BME280;6919;52.344;14.518;2022-12-20T02:43:01;100967.91;;;4.83;100.00
13695;BME280;6919;52.344;14.518;2022-12-20T02:45:36;100972.22;;;4.96;100.00
13695;BME280;6919;52.344;14.518;2022-12-20T02:48:07;100974.03;;;5.08;100.00
13695;BME280;6919;52.344;14.518;2022-12-20T02:50:45;100974.56;;;5.01;100.00
13695;BME280;6919;52.344;14.518;2022-12-20T02:53:15;100962.47;;;4.97;100.00
13695;BME280;6919;52.344;14.518;2022-12-20T02:55:49;100968.41;;;4.88;100.00
13695;BME280;6919;52.344;14.518;2022-12-20T02:58:27;100965.31;;;4.94;100.00
13695;BME280;6919;52.344;14.518;2022-12-20T03:01:03;100960.97;;;4.93;100.00
13695;BME280;6919;52.344;14.518;2022-12-20T03:03:35;100951.50;;;5.01;100.00
13695;BME280;6919;52.344;14.518;2022-12-20T03:06:05;100951.50;;;5.01;100.00
13695;BME280;6919;52.344;14.518;2022-12-20T03:08:33;100950.78;;;4.87;100.00
13695;BME280;6919;52.344;14.518;2022-12-20T03:11:02;100953.34;;;4.88;100.00
13695;BME280;6919;52.344;14.518;2022-12-20T03:13:30;100941.41;;;4.94;100.00
13695;BME280;6919;52.344;14.518;2022-12-20T03:15:59;100951.41;;;5.03;100.00
13695;BME280;6919;52.344;14.518;2022-12-20T03:18:28;100947.50;;;4.83;100.00
13695;BME280;6919;52.344;14.518;2022-12-20T03:20:56;100949.19;;;4.84;100.00
13695;BME280;6919;52.344;14.518;2022-12-20T03:23:24;100949.59;;;4.91;100.00
13695;BME280;6919;52.344;14.518;2022-12-20T03:25:52;100961.97;;;4.79;100.00
13695;BME280;6919;52.344;14.518;2022-12-20T03:28:21;100959.06;;;4.82;100.00
13695;BME280;6919;52.344;14.518;2022-12-20T03:30:49;100960.34;;;4.89;100.00
13695;BME280;6919;52.344;14.518;2022-12-20T03:33:18;100953.66;;;4.84;100.00
13695;BME280;6919;52.344;14.518;2022-12-20T03:35:47;100959.81;;;4.84;100.00
13695;BME280;6919;52.344;14.518;2022-12-20T03:38:15;100956.38;;;4.95;100.00
13695;BME280;6919;52.344;14.518;2022-12-20T03:40:43;100950.88;;;4.85;100.00
13695;BME280;6919;52.344;14.518;2022-12-20T03:43:12;100947.81;;;4.91;100.00
13695;BME280;6919;52.344;14.518;2022-12-20T03:45:40;100945.66;;;4.96;100.00
13695;BME280;6919;52.344;14.518;2022-12-20T03:48:09;100955.78;;;4.91;100.00
13695;BME280;6919;52.344;14.518;2022-12-20T03:50:38;100958.88;;;4.85;100.00
13695;BME280;6919;52.344;14.518;2022-12-20T03:53:07;100957.16;;;4.84;100.00
13695;BME280;6919;52.344;14.518;2022-12-20T03:55:35;100962.41;;;4.61;100.00
13695;BME280;6919;52.344;14.518;2022-12-20T03:58:03;100952.44;;;4.52;100.00
13695;BME280;6919;52.344;14.518;2022-12-20T04:00:31;100947.00;;;4.53;100.00
13695;BME280;6919;52.344;14.518;2022-12-20T04:03:00;100942.13;;;4.47;100.00
13695;BME280;6919;52.344;14.518;2022-12-20T04:05:28;100943.19;;;4.57;100.00
13695;BME280;6919;52.344;14.518;2022-12-20T04:07:58;100944.16;;;4.56;100.00
13695;BME280;6919;52.344;14.518;2022-12-20T04:10:26;100935.66;;;4.51;100.00
13695;BME280;6919;52.344;14.518;2022-12-20T04:12:55;100930.69;;;4.47;100.00
13695;BME280;6919;52.344;14.518;2022-12-20T04:15:23;100931.41;;;4.49;100.00
13695;BME280;6919;52.344;14.518;2022-12-20T04:17:51;100931.72;;;4.57;100.00
13695;BME280;6919;52.344;14.518;2022-12-20T04:20:19;100940.72;;;4.67;100.00
13695;BME280;6919;52.344;14.518;2022-12-20T04:22:50;100948.38;;;4.59;100.00
13695;BME280;6919;52.344;14.518;2022-12-20T04:25:21;100949.13;;;4.61;100.00
13695;BME280;6919;52.344;14.518;2022-12-20T04:27:49;100953.50;;;4.49;100.00
13695;BME280;6919;52.344;14.518;2022-12-20T04:30:17;100955.63;;;4.57;100.00
13695;BME280;6919;52.344;14.518;2022-12-20T04:32:45;100952.31;;;4.53;100.00
13695;BME280;6919;52.344;14.518;2022-12-20T04:35:14;100946.69;;;4.58;100.00
13695;BME280;6919;52.344;14.518;2022-12-20T04:37:42;100952.63;;;4.61;100.00
13695;BME280;6919;52.344;14.518;2022-12-20T04:40:11;100942.47;;;4.55;100.00
13695;BME280;6919;52.344;14.518;2022-12-20T04:42:41;100941.50;;;4.56;100.00
13695;BME280;6919;52.344;14.518;2022-12-20T04:45:10;100933.63;;;4.55;100.00
13695;BME280;6919;52.344;14.518;2022-12-20T04:47:38;100937.47;;;4.51;100.00
13695;BME280;6919;52.344;14.518;2022-12-20T04:50:07;100934.50;;;4.55;100.00
13695;BME280;6919;52.344;14.518;2022-12-20T04:52:35;100938.53;;;4.61;100.00
13695;BME280;6919;52.344;14.518;2022-12-20T04:55:21;100936.59;;;4.63;100.00
13695;BME280;6919;52.344;14.518;2022-12-20T04:57:51;100929.06;;;4.69;100.00
13695;BME280;6919;52.344;14.518;2022-12-20T05:00:19;100931.72;;;4.69;100.00
13695;BME280;6919;52.344;14.518;2022-12-20T05:02:48;100919.16;;;4.71;100.00
13695;BME280;6919;52.344;14.518;2022-12-20T05:05:17;100922.47;;;4.62;100.00
13695;BME280;6919;52.344;14.518;2022-12-20T05:07:46;100913.44;;;4.65;100.00
13695;BME280;6919;52.344;14.518;2022-12-20T05:10:14;100913.13;;;4.57;100.00
13695;BME280;6919;52.344;14.518;2022-12-20T05:12:42;100914.94;;;4.56;100.00
13695;BME280;6919;52.344;14.518;2022-12-20T05:15:12;100898.97;;;4.69;100.00
13695;BME280;6919;52.344;14.518;2022-12-20T05:17:40;100903.88;;;4.75;100.00
13695;BME280;6919;52.344;14.518;2022-12-20T05:20:10;100904.03;;;4.84;100.00
13695;BME280;6919;52.344;14.518;2022-12-20T05:22:39;100905.03;;;4.71;100.00
13695;BME280;6919;52.344;14.518;2022-12-20T05:25:25;100909.00;;;4.65;100.00
13695;BME280;6919;52.344;14.518;2022-12-20T05:28:10;100914.06;;;4.68;100.00
13695;BME280;6919;52.344;14.518;2022-12-20T05:30:40;100903.34;;;4.57;100.00
13695;BME280;6919;52.344;14.518;2022-12-20T05:33:08;100902.53;;;4.57;100.00
13695;BME280;6919;52.344;14.518;2022-12-20T05:35:38;100911.31;;;4.57;100.00
13695;BME280;6919;52.344;14.518;2022-12-20T05:38:07;100901.03;;;4.53;100.00
13695;BME280;6919;52.344;14.518;2022-12-20T05:40:36;100904.94;;;4.60;100.00
13695;BME280;6919;52.344;14.518;2022-12-20T05:43:04;100905.78;;;4.60;100.00
13695;BME280;6919;52.344;14.518;2022-12-20T05:45:33;100896.44;;;4.67;100.00
13695;BME280;6919;52.344;14.518;2022-12-20T05:48:03;100896.63;;;4.77;100.00
13695;BME280;6919;52.344;14.518;2022-12-20T05:50:31;100901.63;;;4.69;100.00
13695;BME280;6919;52.344;14.518;2022-12-20T05:53:00;100904.41;;;4.67;100.00
13695;BME280;6919;52.344;14.518;2022-12-20T05:55:37;100912.56;;;4.77;100.00
13695;BME280;6919;52.344;14.518;2022-12-20T05:58:06;100911.19;;;4.71;100.00
13695;BME280;6919;52.344;14.518;2022-12-20T06:00:34;100898.44;;;4.76;100.00
13695;BME280;6919;52.344;14.518;2022-12-20T06:03:04;100903.53;;;4.79;100.00
13695;BME280;6919;52.344;14.518;2022-12-20T06:05:33;100901.59;;;4.81;100.00
13695;BME280;6919;52.344;14.518;2022-12-20T06:08:01;100902.34;;;4.83;100.00
13695;BME280;6919;52.344;14.518;2022-12-20T06:10:29;100909.78;;;4.78;100.00
13695;BME280;6919;52.344;14.518;2022-12-20T06:12:58;100914.38;;;4.76;100.00
13695;BME280;6919;52.344;14.518;2022-12-20T06:15:27;100914.16;;;4.79;100.00
13695;BME280;6919;52.344;14.518;2022-12-20T06:17:56;100914.81;;;4.70;100.00
13695;BME280;6919;52.344;14.518;2022-12-20T06:20:26;100920.94;;;4.83;100.00
13695;BME280;6919;52.344;14.518;2022-12-20T06:22:54;100914.16;;;4.79;100.00
13695;BME280;6919;52.344;14.518;2022-12-20T06:25:22;100921.13;;;4.93;100.00
13695;BME280;6919;52.344;14.518;2022-12-20T06:27:50;100913.91;;;4.82;100.00
13695;BME280;6919;52.344;14.518;2022-12-20T06:30:21;100912.19;;;4.94;100.00
13695;BME280;6919;52.344;14.518;2022-12-20T06:32:56;100909.00;;;5.01;100.00
13695;BME280;6919;52.344;14.518;2022-12-20T06:35:25;100910.50;;;4.93;100.00
13695;BME280;6919;52.344;14.518;2022-12-20T06:37:54;100901.44;;;4.95;100.00
13695;BME280;6919;52.344;14.518;2022-12-20T06:40:22;100909.44;;;4.95;100.00
13695;BME280;6919;52.344;14.518;2022-12-20T06:42:51;100906.22;;;5.03;100.00
13695;BME280;6919;52.344;14.518;2022-12-20T06:45:20;100903.44;;;5.04;100.00
13695;BME280;6919;52.344;14.518;2022-12-20T06:47:48;100908.34;;;4.98;100.00
13695;BME280;6919;52.344;14.518;2022-12-20T06:50:16;100921.31;;;5.02;100.00
13695;BME280;6919;52.344;14.518;2022-12-20T06:52:46;100907.88;;;4.80;100.00
13695;BME280;6919;52.344;14.518;2022-12-20T06:55:14;100913.06;;;4.94;100.00
13695;BME280;6919;52.344;14.518;2022-12-20T06:57:43;100899.75;;;4.94;100.00
13695;BME280;6919;52.344;14.518;2022-12-20T07:00:12;100901.94;;;5.00;100.00
13695;BME280;6919;52.344;14.518;2022-12-20T07:02:41;100904.16;;;5.06;100.00
13695;BME280;6919;52.344;14.518;2022-12-20T07:05:10;100908.66;;;5.06;100.00
13695;BME280;6919;52.344;14.518;2022-12-20T07:07:38;100909.06;;;5.12;100.00
13695;BME280;6919;52.344;14.518;2022-12-20T07:10:12;100907.81;;;5.05;100.00
13695;BME280;6919;52.344;14.518;2022-12-20T07:12:41;100914.16;;;5.15;100.00
13695;BME280;6919;52.344;14.518;2022-12-20T07:15:14;100918.16;;;5.21;100.00
13695;BME280;6919;52.344;14.518;2022-12-20T07:17:43;100911.53;;;5.26;100.00
13695;BME280;6919;52.344;14.518;2022-12-20T07:20:11;100911.81;;;5.34;100.00
13695;BME280;6919;52.344;14.518;2022-12-20T07:22:41;100924.13;;;5.35;100.00
13695;BME280;6919;52.344;14.518;2022-12-20T07:25:09;100911.66;;;5.25;100.00
13695;BME280;6919;52.344;14.518;2022-12-20T07:27:39;100917.94;;;5.47;100.00
13695;BME280;6919;52.344;14.518;2022-12-20T07:30:08;100921.59;;;5.57;100.00
13695;BME280;6919;52.344;14.518;2022-12-20T07:32:37;100921.31;;;5.49;100.00
13695;BME280;6919;52.344;14.518;2022-12-20T07:35:06;100919.56;;;5.61;100.00
13695;BME280;6919;52.344;14.518;2022-12-20T07:37:35;100920.63;;;5.58;100.00
13695;BME280;6919;52.344;14.518;2022-12-20T07:40:05;100921.72;;;5.56;100.00
13695;BME280;6919;52.344;14.518;2022-12-20T07:42:33;100923.91;;;5.62;100.00
13695;BME280;6919;52.344;14.518;2022-12-20T07:45:08;100926.44;;;5.63;100.00
13695;BME280;6919;52.344;14.518;2022-12-20T07:47:36;100923.78;;;5.63;100.00
13695;BME280;6919;52.344;14.518;2022-12-20T07:50:07;100926.75;;;5.71;100.00
13695;BME280;6919;52.344;14.518;2022-12-20T07:52:36;100924.56;;;5.76;100.00
13695;BME280;6919;52.344;14.518;2022-12-20T07:55:07;100920.94;;;5.77;100.00
13695;BME280;6919;52.344;14.518;2022-12-20T07:57:42;100915.38;;;5.80;100.00
13695;BME280;6919;52.344;14.518;2022-12-20T08:02:49;100914.72;;;5.89;100.00
13695;BME280;6919;52.344;14.518;2022-12-20T08:05:20;100918.34;;;5.88;100.00
13695;BME280;6919;52.344;14.518;2022-12-20T08:07:52;100915.66;;;5.88;100.00
13695;BME280;6919;52.344;14.518;2022-12-20T08:10:26;100916.22;;;6.04;100.00
13695;BME280;6919;52.344;14.518;2022-12-20T08:12:56;100914.69;;;6.24;100.00
13695;BME280;6919;52.344;14.518;2022-12-20T08:15:27;100928.81;;;6.13;100.00
13695;BME280;6919;52.344;14.518;2022-12-20T08:17:56;100920.47;;;6.18;100.00
13695;BME280;6919;52.344;14.518;2022-12-20T08:20:24;100912.56;;;6.05;100.00
13695;BME280;6919;52.344;14.518;2022-12-20T08:22:53;100907.28;;;6.17;100.00
13695;BME280;6919;52.344;14.518;2022-12-20T08:25:21;100909.00;;;6.18;100.00
13695;BME280;6919;52.344;14.518;2022-12-20T08:27:49;100904.63;;;6.28;100.00
13695;BME280;6919;52.344;14.518;2022-12-20T08:30:18;100905.84;;;6.35;100.00
13695;BME280;6919;52.344;14.518;2022-12-20T08:32:48;100910.34;;;6.34;100.00
13695;BME280;6919;52.344;14.518;2022-12-20T08:35:16;100908.16;;;6.39;100.00
13695;BME280;6919;52.344;14.518;2022-12-20T08:37:44;100920.25;;;6.54;100.00
13695;BME280;6919;52.344;14.518;2022-12-20T08:40:13;100914.81;;;6.56;100.00
13695;BME280;6919;52.344;14.518;2022-12-20T08:42:42;100916.75;;;6.76;100.00
13695;BME280;6919;52.344;14.518;2022-12-20T08:45:10;100902.19;;;6.80;100.00
13695;BME280;6919;52.344;14.518;2022-12-20T08:47:39;100908.59;;;6.88;100.00
13695;BME280;6919;52.344;14.518;2022-12-20T08:50:10;100911.63;;;6.84;100.00
13695;BME280;6919;52.344;14.518;2022-12-20T08:52:39;100913.22;;;6.75;100.00
13695;BME280;6919;52.344;14.518;2022-12-20T08:55:08;100913.59;;;6.82;100.00
13695;BME280;6919;52.344;14.518;2022-12-20T08:57:39;100912.63;;;6.72;100.00
13695;BME280;6919;52.344;14.518;2022-12-20T09:00:09;100913.34;;;6.74;100.00
13695;BME280;6919;52.344;14.518;2022-12-20T09:02:38;100919.28;;;6.77;100.00
13695;BME280;6919;52.344;14.518;2022-12-20T09:05:09;100933.22;;;6.70;100.00
13695;BME280;6919;52.344;14.518;2022-12-20T09:07:37;100935.75;;;6.82;100.00
13695;BME280;6919;52.344;14.518;2022-12-20T09:10:07;100937.19;;;6.75;100.00
13695;BME280;6919;52.344;14.518;2022-12-20T09:12:37;100934.19;;;6.69;100.00
13695;BME280;6919;52.344;14.518;2022-12-20T09:15:07;100936.63;;;6.72;100.00
13695;BME280;6919;52.344;14.518;2022-12-20T09:17:35;100939.16;;;6.73;100.00
13695;BME280;6919;52.344;14.518;2022-12-20T09:20:05;100938.41;;;6.71;100.00
13695;BME280;6919;52.344;14.518;2022-12-20T09:22:35;100947.63;;;6.78;100.00
13695;BME280;6919;52.344;14.518;2022-12-20T09:25:05;100943.88;;;6.92;100.00
13695;BME280;6919;52.344;14.518;2022-12-20T09:27:34;100948.59;;;6.88;100.00
13695;BME280;6919;52.344;14.518;2022-12-20T09:30:02;100951.72;;;6.82;100.00
13695;BME280;6919;52.344;14.518;2022-12-20T09:32:30;100936.97;;;6.78;100.00
13695;BME280;6919;52.344;14.518;2022-12-20T09:34:59;100937.94;;;6.88;100.00
13695;BME280;6919;52.344;14.518;2022-12-20T09:37:29;100943.16;;;6.79;100.00
13695;BME280;6919;52.344;14.518;2022-12-20T09:39:59;100936.13;;;6.89;100.00
13695;BME280;6919;52.344;14.518;2022-12-20T09:42:29;100933.91;;;7.05;100.00
13695;BME280;6919;52.344;14.518;2022-12-20T09:45:05;100941.47;;;6.78;100.00
13695;BME280;6919;52.344;14.518;2022-12-20T09:47:36;100928.00;;;6.90;100.00
13695;BME280;6919;52.344;14.518;2022-12-20T09:50:06;100925.06;;;6.93;100.00
13695;BME280;6919;52.344;14.518;2022-12-20T09:53:00;100924.72;;;6.87;100.00
13695;BME280;6919;52.344;14.518;2022-12-20T09:55:41;100928.69;;;7.03;100.00
13695;BME280;6919;52.344;14.518;2022-12-20T09:58:39;100922.78;;;7.00;100.00
13695;BME280;6919;52.344;14.518;2022-12-20T10:01:18;100924.81;;;6.96;100.00
13695;BME280;6919;52.344;14.518;2022-12-20T10:03:53;100916.94;;;6.95;100.00
13695;BME280;6919;52.344;14.518;2022-12-20T10:06:35;100922.03;;;6.98;100.00
13695;BME280;6919;52.344;14.518;2022-12-20T10:09:24;100909.09;;;6.82;100.00
13695;BME280;6919;52.344;14.518;2022-12-20T10:12:13;100902.19;;;6.80;100.00
13695;BME280;6919;52.344;14.518;2022-12-20T10:15:01;100906.19;;;6.74;100.00
13695;BME280;6919;52.344;14.518;2022-12-20T10:17:49;100902.94;;;6.82;100.00
13695;BME280;6919;52.344;14.518;2022-12-20T10:20:38;100895.31;;;6.77;100.00
13695;BME280;6919;52.344;14.518;2022-12-20T10:23:15;100907.78;;;6.77;100.00
13695;BME280;6919;52.344;14.518;2022-12-20T10:25:58;100906.94;;;6.65;100.00
13695;BME280;6919;52.344;14.518;2022-12-20T10:28:34;100915.41;;;6.59;100.00
13695;BME280;6919;52.344;14.518;2022-12-20T10:31:05;100903.44;;;6.65;100.00
13695;BME280;6919;52.344;14.518;2022-12-20T10:33:34;100900.66;;;6.66;100.00
13695;BME280;6919;52.344;14.518;2022-12-20T10:36:21;100890.34;;;6.73;100.00
13695;BME280;6919;52.344;14.518;2022-12-20T10:38:52;100894.69;;;6.63;100.00
13695;BME280;6919;52.344;14.518;2022-12-20T10:41:24;100893.63;;;6.65;100.00
13695;BME280;6919;52.344;14.518;2022-12-20T10:43:59;100899.09;;;6.64;100.00
13695;BME280;6919;52.344;14.518;2022-12-20T10:46:37;100893.25;;;6.59;100.00
13695;BME280;6919;52.344;14.518;2022-12-20T10:49:29;100879.44;;;6.65;100.00
13695;BME280;6919;52.344;14.518;2022-12-20T10:52:02;100891.69;;;6.56;100.00
13695;BME280;6919;52.344;14.518;2022-12-20T10:54:36;100885.25;;;6.59;100.00
13695;BME280;6919;52.344;14.518;2022-12-20T10:57:18;100878.59;;;6.64;100.00
13695;BME280;6919;52.344;14.518;2022-12-20T10:59:52;100878.97;;;6.71;100.00
13695;BME280;6919;52.344;14.518;2022-12-20T11:02:26;100873.50;;;6.83;100.00
13695;BME280;6919;52.344;14.518;2022-12-20T11:05:22;100869.88;;;7.16;100.00
13695;BME280;6919;52.344;14.518;2022-12-20T11:07:55;100857.19;;;7.40;100.00
13695;BME280;6919;52.344;14.518;2022-12-20T11:10:44;100836.91;;;7.48;100.00
13695;BME280;6919;52.344;14.518;2022-12-20T11:13:22;100827.50;;;7.85;100.00
13695;BME280;6919;52.344;14.518;2022-12-20T11:15:55;100815.94;;;7.85;100.00
13695;BME280;6919;52.344;14.518;2022-12-20T11:18:42;100813.72;;;7.90;100.00
13695;BME280;6919;52.344;14.518;2022-12-20T11:21:24;100823.91;;;8.05;100.00
13695;BME280;6919;52.344;14.518;2022-12-20T11:24:07;100824.53;;;8.09;100.00
13695;BME280;6919;52.344;14.518;2022-12-20T11:26:57;100829.13;;;8.07;100.00
13695;BME280;6919;52.344;14.518;2022-12-20T11:29:44;100818.63;;;8.15;100.00
13695;BME280;6919;52.344;14.518;2022-12-20T11:32:28;100822.25;;;8.34;100.00
13695;BME280;6919;52.344;14.518;2022-12-20T11:35:09;100811.34;;;8.47;100.00
13695;BME280;6919;52.344;14.518;2022-12-20T11:37:50;100806.81;;;8.38;100.00
13695;BME280;6919;52.344;14.518;2022-12-20T11:40:31;100803.47;;;8.45;100.00
13695;BME280;6919;52.344;14.518;2022-12-20T11:43:18;100806.84;;;8.47;100.00
13695;BME280;6919;52.344;14.518;2022-12-20T11:46:14;100804.16;;;8.38;100.00
13695;BME280;6919;52.344;14.518;2022-12-20T11:49:21;100794.00;;;8.41;100.00
13695;BME280;6919;52.344;14.518;2022-12-20T11:52:04;100794.00;;;8.41;100.00
13695;BME280;6919;52.344;14.518;2022-12-20T11:54:40;100788.59;;;8.52;100.00
13695;BME280;6919;52.344;14.518;2022-12-20T11:57:19;100773.97;;;8.66;100.00
13695;BME280;6919;52.344;14.518;2022-12-20T11:59:55;100767.78;;;8.75;100.00
13695;BME280;6919;52.344;14.518;2022-12-20T12:02:32;100769.78;;;8.73;100.00
13695;BME280;6919;52.344;14.518;2022-12-20T12:05:13;100779.63;;;8.82;100.00
13695;BME280;6919;52.344;14.518;2022-12-20T12:07:52;100777.41;;;8.87;100.00
13695;BME280;6919;52.344;14.518;2022-12-20T12:10:25;100769.38;;;8.96;100.00
13695;BME280;6919;52.344;14.518;2022-12-20T12:13:06;100762.34;;;9.05;100.00
13695;BME280;6919;52.344;14.518;2022-12-20T12:15:49;100765.59;;;9.18;100.00
13695;BME280;6919;52.344;14.518;2022-12-20T12:18:23;100758.00;;;9.04;100.00
13695;BME280;6919;52.344;14.518;2022-12-20T12:21:01;100746.44;;;9.13;100.00
13695;BME280;6919;52.344;14.518;2022-12-20T12:23:46;100743.88;;;9.21;100.00
13695;BME280;6919;52.344;14.518;2022-12-20T12:26:21;100757.41;;;9.39;100.00
13695;BME280;6919;52.344;14.518;2022-12-20T12:28:55;100755.41;;;9.41;100.00
13695;BME280;6919;52.344;14.518;2022-12-20T12:31:33;100762.88;;;9.37;100.00
13695;BME280;6919;52.344;14.518;2022-12-20T12:34:15;100755.69;;;9.28;100.00
13695;BME280;6919;52.344;14.518;2022-12-20T12:37:13;100762.75;;;8.91;100.00
13695;BME280;6919;52.344;14.518;2022-12-20T12:40:18;100752.06;;;8.91;100.00
13695;BME280;6919;52.344;14.518;2022-12-20T12:46:03;100763.56;;;8.53;100.00
13695;BME280;6919;52.344;14.518;2022-12-20T12:48:45;100759.41;;;8.40;100.00
13695;BME280;6919;52.344;14.518;2022-12-20T12:51:25;100749.72;;;8.39;100.00
13695;BME280;6919;52.344;14.518;2022-12-20T12:54:16;100752.63;;;8.26;100.00
13695;BME280;6919;52.344;14.518;2022-12-20T12:56:47;100747.16;;;8.28;100.00
13695;BME280;6919;52.344;14.518;2022-12-20T12:59:48;100734.22;;;8.23;100.00
13695;BME280;6919;52.344;14.518;2022-12-20T13:02:49;100746.91;;;8.31;100.00
13695;BME280;6919;52.344;14.518;2022-12-20T13:05:35;100732.88;;;8.38;100.00
13695;BME280;6919;52.344;14.518;2022-12-20T13:08:15;100737.63;;;8.44;100.00
13695;BME280;6919;52.344;14.518;2022-12-20T13:11:12;100734.53;;;8.39;100.00
13695;BME280;6919;52.344;14.518;2022-12-20T13:14:11;100719.25;;;8.11;100.00
13695;BME280;6919;52.344;14.518;2022-12-20T13:17:44;100714.34;;;8.16;100.00
13695;BME280;6919;52.344;14.518;2022-12-20T13:20:19;100710.31;;;8.22;100.00
13695;BME280;6919;52.344;14.518;2022-12-20T13:23:14;100708.84;;;8.18;100.00
13695;BME280;6919;52.344;14.518;2022-12-20T13:25:46;100719.03;;;8.24;100.00
13695;BME280;6919;52.344;14.518;2022-12-20T13:28:45;100700.56;;;8.11;100.00
13695;BME280;6919;52.344;14.518;2022-12-20T13:31:32;100692.94;;;8.07;100.00